Belfast, ME

4:59 PM EST on January 24, 2017 (GMT -0500)
Congress Street | | Change Station
Active Advisory: Small Craft Advisory

Elev 170 ft 44.42 °N, 69.01 °W | Updated 1 minute ago

Rain
Rain
33.8 °F
Feels Like 34 °F
N
1.2
Wind Variable Wind from NNW
Gusts 4.3 mph

Today
High -- | Low -- °F
--% Chance of Precip.
Yesterday
High -- | Low -- °F
Precip. -- in
Pressure 29.41 in
Visibility 7.0 miles
Clouds Overcast 800 ft
Windchill 34 °F
Dew Point 32 °F
Humidity 95%
Rainfall 0.00 in
Snow Depth Not available.
7:02 AM 4:34 PM
Waning Crescent, 9% visible
METAR KRKD 242156Z AUTO 04018G25KT 7SM -RA OVC008 02/01 A2940 RMK AO2 PK WND 04028/2134 UPB16E43 SLP958 P0016 T00220011 FZRANO
Pressure 29.41 in
Visibility 7.0 miles
Clouds Overcast 800 ft
Windchill 34 °F
Dew Point 32 °F
Humidity 95%
Rainfall 0.00 in
Snow Depth Not available.
7:02 AM 4:34 PM
Waning Crescent, 9% visible
METAR KRKD 242156Z AUTO 04018G25KT 7SM -RA OVC008 02/01 A2940 RMK AO2 PK WND 04028/2134 UPB16E43 SLP958 P0016 T00220011 FZRANO

Get Your Daily Forecast Email!

Thanks for signing up!

Be on the lookout for a verification email in your inbox.

You'll start receiving the daily forecast at 8 AM.

×

10-Day Weather Forecast

Almanac

Astronomy

Jan. 24, 2017 Rise Set
Actual Time
Civil Twilight
Nautical Twilight
Astronomical Twilight
Moon
Length of Visible Light
Length of Day
Tomorrow will be .
, % of the Moon is Illuminated

Today's Extremes

State Highs State Lows

Community

WunderPhotos

Upload Photos

1,962,540 photos uploaded!

WunderBlog® & News

Nearby

Air Quality

  Air Quality AQ Index Pollutant
Not available.

Snow Depth

Station Depth Elevation

Earthquake Activity

City Distance Mag. Time & Date
Minimum magnitude displayed is 2.5.

Coastal Water Temperatures

Place Temperature

Stations

Nearby Weather Stations

Station Location Temp. Windchill Dew Point Humidity Wind Precip. Elev Updated Type
                   

Watches & Warnings

Small Craft Advisory
Issued: 2:47 PM EST Jan. 24, 2017 – National Weather Service

... Small Craft Advisory in effect until 4 am EST Wednesday...
... Gale Warning is cancelled...

The National Weather Service in gray has issued a Small Craft
Advisory... which is in effect until 4 am EST Wednesday. The Gale
Warning has been cancelled.

* Winds... northeast 15 to 25 kt with a few gusts up to 35 kt.

* Seas... 6 to 9 feet.

Precautionary/preparedness actions...

A Small Craft Advisory means that wind speeds of 25 to 33 knots
are expected to produce hazardous wave conditions to small craft.
Inexperienced mariners... especially those operating smaller
vessels should avoid navigating in these conditions.